createdAt,value
2022-10-03T00:01:44.224Z,3.88
2022-10-03T00:03:54.981Z,3.40
2022-10-03T00:06:06.620Z,3.85
2022-10-03T00:08:34.065Z,4.05
2022-10-03T00:11:03.106Z,3.88
2022-10-03T00:13:58.624Z,4.85
2022-10-03T00:16:11.261Z,4.88
2022-10-03T00:18:21.701Z,3.63
2022-10-03T00:21:01.772Z,4.38
2022-10-03T00:23:19.303Z,4.88
2022-10-03T00:25:28.465Z,4.63
2022-10-03T00:27:45.206Z,4.03
2022-10-03T00:29:52.216Z,4.00
2022-10-03T00:32:06.113Z,5.43
2022-10-03T00:34:46.641Z,7.60
2022-10-03T00:37:35.645Z,4.10
2022-10-03T00:39:46.165Z,4.15
2022-10-03T00:42:01.654Z,3.45
2022-10-03T00:44:11.631Z,3.17
2022-10-03T00:46:32.032Z,3.47
2022-10-03T00:48:52.305Z,3.47
2022-10-03T00:51:03.372Z,3.10
2022-10-03T00:53:20.284Z,3.05
2022-10-03T00:55:35.253Z,2.70
2022-10-03T00:57:39.444Z,7.15
2022-10-03T00:59:48.342Z,2.90
2022-10-03T01:01:50.760Z,2.92
2022-10-03T01:04:11.012Z,3.63
2022-10-03T01:06:30.346Z,3.22
2022-10-03T01:08:40.534Z,2.90
2022-10-03T01:10:44.855Z,2.60
2022-10-03T01:13:28.386Z,2.78
2022-10-03T01:15:52.697Z,3.08
2022-10-03T01:18:00.312Z,3.15
2022-10-03T01:20:20.247Z,5.82
2022-10-03T01:23:00.540Z,2.72
2022-10-03T01:25:26.996Z,2.33
2022-10-03T01:28:11.880Z,3.05
2022-10-03T01:30:22.901Z,3.20
2022-10-03T01:32:40.628Z,3.05
2022-10-03T01:34:46.714Z,3.05
2022-10-03T01:37:09.606Z,3.88
2022-10-03T01:39:32.625Z,3.30
2022-10-03T01:42:10.239Z,6.25
2022-10-03T01:44:31.637Z,3.60
2022-10-03T01:46:39.531Z,3.03
2022-10-03T01:48:55.214Z,2.63
2022-10-03T01:51:14.160Z,3.08
2022-10-03T01:53:41.932Z,2.72
2022-10-03T01:56:22.428Z,1.85
2022-10-03T01:58:42.111Z,2.45
2022-10-03T02:00:48.726Z,2.20
2022-10-03T02:03:04.806Z,2.78
2022-10-03T02:05:21.263Z,2.42
2022-10-03T02:07:30.235Z,2.30
2022-10-03T02:09:50.320Z,2.42
2022-10-03T02:11:59.896Z,2.03
2022-10-03T02:14:25.863Z,2.70
2022-10-03T02:16:58.342Z,1.98
2022-10-03T02:19:45.810Z,2.47
2022-10-03T02:21:52.991Z,3.20
2022-10-03T02:24:12.940Z,2.80
2022-10-03T02:26:35.527Z,2.78
2022-10-03T02:28:37.119Z,2.60
2022-10-03T02:30:57.311Z,3.42
2022-10-03T02:33:01.871Z,4.55
2022-10-03T02:35:22.078Z,1.90
2022-10-03T02:37:50.132Z,1.92
2022-10-03T02:40:19.970Z,2.05
2022-10-03T02:42:52.647Z,2.20
2022-10-03T02:44:54.477Z,1.70
2022-10-03T02:47:20.931Z,1.70
2022-10-03T02:50:10.173Z,1.98
2022-10-03T02:52:14.794Z,1.85
2022-10-03T02:54:40.729Z,1.42
2022-10-03T02:56:51.485Z,1.67
2022-10-03T02:59:30.372Z,1.20
2022-10-03T03:01:58.494Z,1.20
2022-10-03T03:04:03.293Z,1.13
2022-10-03T03:06:32.545Z,1.38
2022-10-03T03:08:55.010Z,1.77
2022-10-03T03:11:11.898Z,1.52
2022-10-03T03:13:26.286Z,1.80
2022-10-03T03:15:58.187Z,1.60
2022-10-03T03:18:11.320Z,1.67
2022-10-03T03:20:36.059Z,1.70
2022-10-03T03:22:49.174Z,1.85
2022-10-03T03:25:02.724Z,1.55
2022-10-03T03:27:10.915Z,1.73
2022-10-03T03:29:57.901Z,2.10
2022-10-03T03:32:04.470Z,1.90
2022-10-03T03:34:27.420Z,2.22
2022-10-03T03:36:44.431Z,2.55
2022-10-03T03:38:54.683Z,2.50
2022-10-03T03:41:05.166Z,2.17
2022-10-03T03:43:44.692Z,3.58
2022-10-03T03:46:11.158Z,2.28
2022-10-03T03:48:22.742Z,2.08
2022-10-03T03:50:48.534Z,2.40
2022-10-03T03:53:15.088Z,2.22
2022-10-03T03:55:41.172Z,2.28
2022-10-03T03:57:49.795Z,2.58
2022-10-03T04:00:22.090Z,2.10
2022-10-03T04:02:53.831Z,2.30
2022-10-03T04:05:20.362Z,1.88
2022-10-03T04:07:24.709Z,2.75
2022-10-03T04:09:59.730Z,2.13
2022-10-03T04:12:25.873Z,2.67
2022-10-03T04:14:33.257Z,2.50
2022-10-03T04:17:16.829Z,2.80
2022-10-03T04:19:28.732Z,2.30
2022-10-03T04:21:57.142Z,2.38
2022-10-03T04:24:04.953Z,1.98
2022-10-03T04:26:31.291Z,1.45
2022-10-03T04:28:45.748Z,2.78
2022-10-03T04:31:16.575Z,2.65
2022-10-03T04:33:33.899Z,2.22
2022-10-03T04:35:51.350Z,2.88
2022-10-03T04:38:26.684Z,2.67
2022-10-03T04:40:28.327Z,1.98
2022-10-03T04:42:47.527Z,2.20
2022-10-03T04:45:10.814Z,1.80
2022-10-03T04:47:34.277Z,1.75
2022-10-03T04:50:23.830Z,1.88
2022-10-03T04:52:35.498Z,1.48
2022-10-03T04:55:07.265Z,2.30
2022-10-03T04:57:21.958Z,2.00
2022-10-03T04:59:42.305Z,2.20
2022-10-03T05:02:07.735Z,2.13
2022-10-03T05:04:36.996Z,2.25
2022-10-03T05:06:56.989Z,1.50
2022-10-03T05:09:27.022Z,1.75
2022-10-03T05:11:34.488Z,3.13
2022-10-03T05:13:57.545Z,3.08
2022-10-03T05:16:08.731Z,2.03
2022-10-03T05:18:26.982Z,1.45
2022-10-03T05:20:48.710Z,2.38
2022-10-03T05:22:53.371Z,1.63
2022-10-03T05:25:03.247Z,1.40
2022-10-03T05:27:33.777Z,1.40
2022-10-03T05:29:41.584Z,1.30
2022-10-03T05:32:04.775Z,3.97
2022-10-03T05:34:33.765Z,1.70
2022-10-03T05:37:07.919Z,1.63
2022-10-03T05:39:23.595Z,1.30
2022-10-03T05:41:32.754Z,1.17
2022-10-03T05:43:58.408Z,1.30
2022-10-03T05:46:36.928Z,1.30
2022-10-03T05:48:48.070Z,1.73
2022-10-03T05:51:13.271Z,1.88
2022-10-03T05:53:36.682Z,1.20
2022-10-03T05:56:09.043Z,1.45
2022-10-03T05:58:28.459Z,1.23
2022-10-03T06:00:42.130Z,1.20
2022-10-03T06:03:22.800Z,5.55
2022-10-03T06:05:32.304Z,2.47
2022-10-03T06:08:12.276Z,2.15
2022-10-03T06:10:35.362Z,1.60
2022-10-03T06:12:45.412Z,1.88
2022-10-03T06:15:12.448Z,1.63
2022-10-03T06:17:43.349Z,1.90
2022-10-03T06:19:56.226Z,1.85
2022-10-03T06:22:21.828Z,2.00
2022-10-03T06:24:40.842Z,1.80
2022-10-03T06:26:51.483Z,1.77
2022-10-03T06:29:11.333Z,1.95
2022-10-03T06:31:51.668Z,1.90
2022-10-03T06:33:59.614Z,1.60
2022-10-03T06:36:16.671Z,2.63
2022-10-03T06:38:55.208Z,2.45
2022-10-03T06:41:12.119Z,2.10
2022-10-03T06:43:17.265Z,1.90
2022-10-03T06:45:18.989Z,5.00
2022-10-03T06:48:08.002Z,2.38
2022-10-03T06:50:47.087Z,2.42
2022-10-03T06:52:58.373Z,2.67
2022-10-03T06:55:54.405Z,3.60
2022-10-03T06:58:33.330Z,4.15
2022-10-03T07:01:05.821Z,3.55
2022-10-03T07:03:22.362Z,3.45
2022-10-03T07:05:47.055Z,3.92
2022-10-03T07:08:07.332Z,4.00
2022-10-03T07:10:33.557Z,4.75
2022-10-03T07:12:54.725Z,4.50
2022-10-03T07:15:17.638Z,4.50
2022-10-03T07:17:25.594Z,3.95
2022-10-03T07:19:48.698Z,4.75
2022-10-03T07:22:11.363Z,3.75
2022-10-03T07:24:25.664Z,5.78
2022-10-03T07:27:24.791Z,4.25
2022-10-03T07:29:44.839Z,3.65
2022-10-03T07:32:13.676Z,3.97
2022-10-03T07:34:49.485Z,4.38
2022-10-03T07:37:34.855Z,3.65
2022-10-03T07:40:12.408Z,3.67
2022-10-03T07:42:33.150Z,4.13
2022-10-03T07:45:03.124Z,3.80
2022-10-03T07:47:35.446Z,3.67
2022-10-03T07:49:56.645Z,4.07
2022-10-03T07:52:29.752Z,3.63
2022-10-03T07:54:40.199Z,4.03
2022-10-03T07:56:48.595Z,4.55
2022-10-03T07:59:11.931Z,4.28
2022-10-03T08:01:19.676Z,4.00
2022-10-03T08:03:30.450Z,3.83
2022-10-03T08:05:49.791Z,4.20
2022-10-03T08:08:12.864Z,5.28
2022-10-03T08:10:23.677Z,4.00
2022-10-03T08:12:52.878Z,4.13
2022-10-03T08:15:05.116Z,3.60
2022-10-03T08:17:34.432Z,4.05
2022-10-03T08:20:07.921Z,4.18
2022-10-03T08:22:30.685Z,4.10
2022-10-03T08:25:07.302Z,4.18
2022-10-03T08:27:28.420Z,4.30
2022-10-03T08:29:57.159Z,3.85
2022-10-03T08:32:17.729Z,4.13
2022-10-03T08:34:45.060Z,4.40
2022-10-03T08:37:14.780Z,4.38
2022-10-03T08:39:40.212Z,4.30
2022-10-03T08:44:13.780Z,4.60
2022-10-03T08:46:48.234Z,5.45
2022-10-03T08:49:06.069Z,6.45
2022-10-03T08:51:45.517Z,8.65
2022-10-03T08:54:07.811Z,6.07
2022-10-03T08:56:21.544Z,5.72
2022-10-03T08:58:57.173Z,6.82
2022-10-03T09:01:17.117Z,5.63
2022-10-03T09:03:48.133Z,6.97
2022-10-03T09:06:04.387Z,8.13
2022-10-03T09:08:24.128Z,8.63
2022-10-03T09:10:56.886Z,9.77
2022-10-03T09:13:16.612Z,9.45
2022-10-03T09:15:45.593Z,8.32
2022-10-03T09:18:10.118Z,9.20
2022-10-03T09:20:31.677Z,8.07
2022-10-03T09:22:54.416Z,8.23
2022-10-03T09:25:21.060Z,7.95
2022-10-03T09:27:24.078Z,8.35
2022-10-03T09:29:44.011Z,6.43
2022-10-03T09:32:40.882Z,8.18
2022-10-03T09:35:07.154Z,7.00
2022-10-03T09:37:18.130Z,6.55
2022-10-03T09:39:46.790Z,5.32
2022-10-03T09:42:12.195Z,7.10
2022-10-03T09:44:34.778Z,7.57
2022-10-03T09:47:11.252Z,6.45
2022-10-03T09:49:38.422Z,6.68
2022-10-03T09:51:48.338Z,6.63
2022-10-03T09:54:10.399Z,5.72
2022-10-03T09:56:19.852Z,5.70
2022-10-03T09:58:30.451Z,6.25
2022-10-03T10:00:49.099Z,6.85
2022-10-03T10:03:24.714Z,5.63
2022-10-03T10:05:53.624Z,6.05
2022-10-03T10:08:33.278Z,4.95
2022-10-03T10:10:55.927Z,5.03
2022-10-03T10:12:57.283Z,5.03
2022-10-03T10:15:18.972Z,5.93
2022-10-03T10:17:42.565Z,5.95
2022-10-03T10:19:59.276Z,6.00
2022-10-03T10:22:15.904Z,5.50
2022-10-03T10:24:18.759Z,5.22
2022-10-03T10:26:48.420Z,4.72
2022-10-03T10:29:14.025Z,6.00
2022-10-03T10:31:59.088Z,5.43
2022-10-03T10:34:21.704Z,3.97
2022-10-03T10:36:44.516Z,3.72
2022-10-03T10:39:10.722Z,4.00
2022-10-03T10:41:56.487Z,3.35
2022-10-03T10:44:18.118Z,3.13
2022-10-03T10:46:41.552Z,2.20
2022-10-03T10:49:18.097Z,2.42
2022-10-03T10:51:29.808Z,2.38
2022-10-03T10:54:02.223Z,2.70
2022-10-03T10:56:43.085Z,3.50
2022-10-03T10:58:48.698Z,2.17
2022-10-03T11:00:50.316Z,2.30
2022-10-03T11:03:29.787Z,2.42
2022-10-03T11:05:52.619Z,2.15
2022-10-03T11:08:28.122Z,2.58
2022-10-03T11:10:56.492Z,2.47
2022-10-03T11:13:42.064Z,1.98
2022-10-03T11:15:53.037Z,2.15
2022-10-03T11:18:17.315Z,2.53
2022-10-03T11:20:57.786Z,3.15
2022-10-03T11:23:19.748Z,1.92
2022-10-03T11:25:30.206Z,2.25
2022-10-03T11:27:57.837Z,3.47
2022-10-03T11:30:06.752Z,2.55
2022-10-03T11:32:25.148Z,2.55
2022-10-03T11:34:48.442Z,2.03
2022-10-03T11:36:56.734Z,1.90
2022-10-03T11:39:07.106Z,2.25
2022-10-03T11:41:08.457Z,2.30
2022-10-03T11:43:52.991Z,2.78
2022-10-03T11:45:56.369Z,2.10
2022-10-03T11:48:18.781Z,2.00
2022-10-03T11:50:47.688Z,2.22
2022-10-03T11:53:01.327Z,2.17
2022-10-03T11:55:14.827Z,2.47
2022-10-03T11:57:37.852Z,1.70
2022-10-03T12:00:00.291Z,2.33
2022-10-03T12:02:14.367Z,2.15
2022-10-03T12:04:53.468Z,2.47
2022-10-03T12:07:24.246Z,2.22
2022-10-03T12:09:47.972Z,1.60
2022-10-03T12:12:27.835Z,1.73
2022-10-03T12:14:33.274Z,1.95
2022-10-03T12:16:54.180Z,2.22
2022-10-03T12:19:03.463Z,1.98
2022-10-03T12:21:10.708Z,1.83
2022-10-03T12:23:20.806Z,1.95
2022-10-03T12:25:27.531Z,1.95
2022-10-03T12:27:43.917Z,1.33
2022-10-03T12:29:54.933Z,2.47
2022-10-03T12:32:10.050Z,2.20
2022-10-03T12:34:19.645Z,1.58
2022-10-03T12:36:41.165Z,1.95
2022-10-03T12:38:51.517Z,1.48
2022-10-03T12:41:22.530Z,2.20
2022-10-03T12:43:46.606Z,1.60
2022-10-03T12:45:52.514Z,1.80
2022-10-03T12:48:02.624Z,1.38
2022-10-03T12:50:13.096Z,1.85
2022-10-03T12:52:21.042Z,1.52
2022-10-03T12:54:37.625Z,2.10
2022-10-03T12:56:57.421Z,2.15
2022-10-03T12:59:15.308Z,1.73
2022-10-03T13:01:31.522Z,2.05
2022-10-03T13:03:49.663Z,1.90
2022-10-03T13:06:12.850Z,1.55
2022-10-03T13:08:42.701Z,1.80
2022-10-03T13:11:02.062Z,1.45
2022-10-03T13:13:22.312Z,1.30
2022-10-03T13:16:04.255Z,1.55
2022-10-03T13:18:29.417Z,1.83
2022-10-03T13:20:43.846Z,2.20
2022-10-03T13:22:59.098Z,1.98
2022-10-03T13:25:05.219Z,1.83
2022-10-03T13:27:17.087Z,2.00
2022-10-03T13:29:38.996Z,1.95
2022-10-03T13:32:01.346Z,2.33
2022-10-03T13:34:11.439Z,1.65
2022-10-03T13:36:26.748Z,2.42
2022-10-03T13:38:31.798Z,1.80
2022-10-03T13:40:36.348Z,1.52
2022-10-03T13:42:45.277Z,1.90
2022-10-03T13:44:50.279Z,1.75
2022-10-03T13:47:15.623Z,1.50
2022-10-03T13:49:40.424Z,1.83
2022-10-03T13:51:50.271Z,1.73
2022-10-03T13:54:09.559Z,1.95
2022-10-03T13:56:31.857Z,1.55
2022-10-03T13:58:58.181Z,1.70
2022-10-03T14:01:13.434Z,1.83
2022-10-03T14:03:33.479Z,1.77
2022-10-03T14:05:58.347Z,1.92
2022-10-03T14:08:07.517Z,2.00
2022-10-03T14:11:04.536Z,1.98
2022-10-03T14:13:06.149Z,2.22
2022-10-03T14:15:31.322Z,2.08
2022-10-03T14:17:38.692Z,2.28
2022-10-03T14:19:55.094Z,1.85
2022-10-03T14:22:08.449Z,2.33
2022-10-03T14:24:20.274Z,2.13
2022-10-03T14:26:46.276Z,2.35
2022-10-03T14:29:01.741Z,2.30
2022-10-03T14:31:31.485Z,2.47
2022-10-03T14:33:44.168Z,2.70
2022-10-03T14:36:16.753Z,2.58
2022-10-03T14:38:55.941Z,2.40
2022-10-03T14:41:04.166Z,2.10
2022-10-03T14:43:14.782Z,2.33
2022-10-03T14:45:18.469Z,2.10
2022-10-03T14:47:21.802Z,2.67
2022-10-03T14:52:15.149Z,2.78
2022-10-03T14:54:20.610Z,2.20
2022-10-03T14:56:24.383Z,2.80
2022-10-03T14:58:29.521Z,2.53
2022-10-03T15:00:38.914Z,2.10
2022-10-03T15:02:46.977Z,2.00
2022-10-03T15:04:50.174Z,2.65
2022-10-03T15:06:54.489Z,3.25
2022-10-03T15:08:57.972Z,2.33
2022-10-03T15:11:00.293Z,1.98
2022-10-03T15:13:09.857Z,2.97
2022-10-03T15:15:28.116Z,2.80
2022-10-03T15:17:35.228Z,3.70
2022-10-03T15:19:40.551Z,5.95
2022-10-03T15:21:46.049Z,3.60
2022-10-03T15:23:53.890Z,3.10
2022-10-03T15:25:57.408Z,3.45
2022-10-03T15:28:00.233Z,2.78
2022-10-03T15:30:04.039Z,4.13
2022-10-03T15:32:08.416Z,3.08
2022-10-03T15:34:16.446Z,3.83
2022-10-03T15:36:28.179Z,3.00
2022-10-03T15:38:40.041Z,2.75
2022-10-03T15:40:52.742Z,3.13
2022-10-03T15:43:09.171Z,2.53
2022-10-03T15:45:19.386Z,2.33
2022-10-03T15:47:23.286Z,2.90
2022-10-03T15:49:33.428Z,2.55
2022-10-03T15:51:38.645Z,2.40
2022-10-03T15:53:40.579Z,2.70
2022-10-03T15:55:47.925Z,3.05
2022-10-03T15:58:05.051Z,2.97
2022-10-03T16:00:15.934Z,3.85
2022-10-03T16:02:25.742Z,3.15
2022-10-03T16:04:31.558Z,4.10
2022-10-03T16:07:07.771Z,4.18
2022-10-03T16:09:27.407Z,3.85
2022-10-03T16:12:10.351Z,3.35
2022-10-03T16:14:11.755Z,3.60
2022-10-03T16:16:24.130Z,3.22
2022-10-03T16:18:50.795Z,3.47
2022-10-03T16:20:57.866Z,3.65
2022-10-03T16:23:09.222Z,4.07
2022-10-03T16:25:18.263Z,3.35
2022-10-03T16:27:26.405Z,3.75
2022-10-03T16:29:34.604Z,3.97
2022-10-03T16:32:10.632Z,4.25
2022-10-03T16:34:20.270Z,4.38
2022-10-03T16:36:21.858Z,4.03
2022-10-03T16:38:25.719Z,4.72
2022-10-03T16:40:27.340Z,4.57
2022-10-03T16:42:45.071Z,4.60
2022-10-03T16:44:46.558Z,4.10
2022-10-03T16:46:48.455Z,4.47
2022-10-03T16:49:10.385Z,4.72
2022-10-03T16:51:24.886Z,4.88
2022-10-03T16:53:27.111Z,4.95
2022-10-03T16:55:32.855Z,4.40
2022-10-03T16:57:44.458Z,4.60
2022-10-03T16:59:48.648Z,4.75
2022-10-03T17:01:52.394Z,5.72
2022-10-03T17:04:19.543Z,5.63
2022-10-03T17:06:32.712Z,4.88
2022-10-03T17:08:42.512Z,4.35
2022-10-03T17:10:44.759Z,4.68
2022-10-03T17:12:46.487Z,5.25
2022-10-03T17:15:00.195Z,5.70
2022-10-03T17:17:17.861Z,5.78
2022-10-03T17:19:37.833Z,4.93
2022-10-03T17:21:47.486Z,5.20
2022-10-03T17:24:17.894Z,5.40
2022-10-03T17:26:33.305Z,5.45
2022-10-03T17:28:34.921Z,5.15
2022-10-03T17:30:48.936Z,5.15
2022-10-03T17:32:58.435Z,5.63
2022-10-03T17:35:11.581Z,5.20
2022-10-03T17:37:16.080Z,5.13
2022-10-03T17:39:38.512Z,5.15
2022-10-03T17:41:41.850Z,6.07
2022-10-03T17:43:48.785Z,7.25
2022-10-03T17:46:05.333Z,6.85
2022-10-03T17:48:17.539Z,6.65
2022-10-03T17:50:22.889Z,6.88
2022-10-03T17:52:25.028Z,7.35
2022-10-03T17:54:32.115Z,8.00
2022-10-03T17:56:34.444Z,7.82
2022-10-03T17:58:37.784Z,8.95
2022-10-03T18:00:59.077Z,17.10
2022-10-03T18:03:16.837Z,13.48
2022-10-03T18:05:20.992Z,11.85
2022-10-03T18:07:25.266Z,11.70
2022-10-03T18:09:43.540Z,10.65
2022-10-03T18:11:45.472Z,10.98
2022-10-03T18:13:52.635Z,12.30
2022-10-03T18:16:31.713Z,14.60
2022-10-03T18:19:11.432Z,23.42
2022-10-03T18:21:43.453Z,23.10
2022-10-03T18:24:23.687Z,21.27
2022-10-03T18:26:49.549Z,19.58
2022-10-03T18:29:21.953Z,19.40
2022-10-03T18:31:25.656Z,15.32
2022-10-03T18:33:42.499Z,15.43
2022-10-03T18:35:46.059Z,8.48
2022-10-03T18:38:09.867Z,8.82
2022-10-03T18:40:22.007Z,8.77
2022-10-03T18:42:28.145Z,9.07
2022-10-03T18:44:30.872Z,10.55
2022-10-03T18:46:42.647Z,11.10
2022-10-03T18:49:30.168Z,10.50
2022-10-03T18:51:32.575Z,11.85
2022-10-03T18:53:39.742Z,9.85
2022-10-03T18:55:45.761Z,8.20
2022-10-03T18:57:56.915Z,7.97
2022-10-03T19:00:26.488Z,6.70
2022-10-03T19:02:37.855Z,6.90
2022-10-03T19:04:59.716Z,6.70
2022-10-03T19:07:02.912Z,6.63
2022-10-03T19:09:33.794Z,6.88
2022-10-03T19:11:50.210Z,6.28
2022-10-03T19:14:08.021Z,7.07
2022-10-03T19:16:16.624Z,5.78
2022-10-03T19:18:27.856Z,6.55
2022-10-03T19:20:34.163Z,6.32
2022-10-03T19:22:58.078Z,6.30
2022-10-03T19:25:05.387Z,6.45
2022-10-03T19:27:12.644Z,5.60
2022-10-03T19:29:19.707Z,6.15
2022-10-03T19:31:38.791Z,6.03
2022-10-03T19:34:12.938Z,5.63
2022-10-03T19:36:27.860Z,5.47
2022-10-03T19:38:36.543Z,5.43
2022-10-03T19:41:12.121Z,5.20
2022-10-03T19:43:32.249Z,5.55
2022-10-03T19:45:34.622Z,6.05
2022-10-03T19:47:42.983Z,6.07
2022-10-03T19:50:15.886Z,6.75
2022-10-03T19:52:17.475Z,6.72
2022-10-03T19:54:31.367Z,6.88
2022-10-03T19:56:37.399Z,6.20
2022-10-03T19:58:39.401Z,7.13
2022-10-03T20:00:56.757Z,8.05
2022-10-03T20:03:32.131Z,8.15
2022-10-03T20:06:02.009Z,8.88
2022-10-03T20:08:23.778Z,8.20
2022-10-03T20:11:03.255Z,8.02
2022-10-03T20:13:05.016Z,8.27
2022-10-03T20:15:21.654Z,7.40
2022-10-03T20:17:23.971Z,7.72
2022-10-03T20:19:30.699Z,7.47
2022-10-03T20:21:33.532Z,7.43
2022-10-03T20:23:35.980Z,8.30
2022-10-03T20:25:40.389Z,7.20
2022-10-03T20:27:51.183Z,6.68
2022-10-03T20:30:16.838Z,7.88
2022-10-03T20:32:19.635Z,7.20
2022-10-03T20:34:24.318Z,7.53
2022-10-03T20:36:28.266Z,7.20
2022-10-03T20:39:07.264Z,6.72
2022-10-03T20:41:10.972Z,6.70
2022-10-03T20:43:32.449Z,6.28
2022-10-03T20:45:37.163Z,7.50
2022-10-03T20:47:56.843Z,7.97
2022-10-03T20:50:02.675Z,7.85
2022-10-03T20:52:06.713Z,8.13
2022-10-03T20:54:14.390Z,8.35
2022-10-03T20:56:23.377Z,8.75
2022-10-03T20:58:31.647Z,8.23
2022-10-03T21:00:50.616Z,8.73
2022-10-03T21:03:01.612Z,9.32
2022-10-03T21:05:33.134Z,9.02
2022-10-03T21:07:42.529Z,11.20
2022-10-03T21:09:50.634Z,9.75
2022-10-03T21:11:54.887Z,9.38
2022-10-03T21:14:38.272Z,9.25
2022-10-03T21:16:45.110Z,10.10
2022-10-03T21:18:48.480Z,9.68
2022-10-03T21:21:03.757Z,11.85
2022-10-03T21:23:26.000Z,12.20
2022-10-03T21:25:34.820Z,10.13
2022-10-03T21:27:48.002Z,9.32
2022-10-03T21:30:25.362Z,9.43
2022-10-03T21:32:37.649Z,8.05
2022-10-03T21:35:03.247Z,8.70
2022-10-03T21:37:14.896Z,8.25
2022-10-03T21:39:40.607Z,7.32
2022-10-03T21:42:18.979Z,7.90
2022-10-03T21:44:42.860Z,8.18
2022-10-03T21:46:51.215Z,8.07
2022-10-03T21:49:14.677Z,7.93
2022-10-03T21:51:33.616Z,6.85
2022-10-03T21:54:00.427Z,8.18
2022-10-03T21:56:31.386Z,8.68
2022-10-03T21:59:22.673Z,7.50
2022-10-03T22:01:38.397Z,8.68
2022-10-03T22:04:20.707Z,8.18
2022-10-03T22:06:35.401Z,8.20
2022-10-03T22:08:45.130Z,7.97
2022-10-03T22:11:06.667Z,9.15
2022-10-03T22:13:35.489Z,8.35
2022-10-03T22:15:49.488Z,8.93
2022-10-03T22:18:06.917Z,7.68
2022-10-03T22:20:24.031Z,7.43
2022-10-03T22:22:56.486Z,7.75
2022-10-03T22:25:39.940Z,8.68
2022-10-03T22:28:13.807Z,8.55
2022-10-03T22:30:36.023Z,6.95
2022-10-03T22:33:28.920Z,7.32
2022-10-03T22:35:51.667Z,7.97
2022-10-03T22:37:57.663Z,7.43
2022-10-03T22:40:07.549Z,7.72
2022-10-03T22:42:23.424Z,7.43
2022-10-03T22:45:00.456Z,7.70
2022-10-03T22:47:12.630Z,7.60
2022-10-03T22:49:45.091Z,7.85
2022-10-03T22:52:00.511Z,7.38
2022-10-03T22:54:24.209Z,7.35
2022-10-03T22:56:38.634Z,7.05
2022-10-03T22:59:11.985Z,6.90
2022-10-03T23:01:34.068Z,6.32
2022-10-03T23:03:59.714Z,7.30
2022-10-03T23:06:41.676Z,6.95
2022-10-03T23:08:49.490Z,6.50
2022-10-03T23:11:00.996Z,7.35
2022-10-03T23:13:09.761Z,7.28
2022-10-03T23:15:38.294Z,6.75
2022-10-03T23:17:57.759Z,6.65
2022-10-03T23:20:11.784Z,6.38
2022-10-03T23:22:17.515Z,7.18
2022-10-03T23:24:54.210Z,6.50
2022-10-03T23:27:14.184Z,5.82
2022-10-03T23:29:19.181Z,5.63
2022-10-03T23:31:48.758Z,6.45
2022-10-03T23:33:54.462Z,6.78
2022-10-03T23:35:55.987Z,6.72
2022-10-03T23:38:01.475Z,7.68
2022-10-03T23:40:08.784Z,6.88
2022-10-03T23:42:32.009Z,6.82
2022-10-03T23:44:49.737Z,7.65
2022-10-03T23:46:58.443Z,6.45
2022-10-03T23:49:06.141Z,6.50
2022-10-03T23:51:13.085Z,7.13
2022-10-03T23:53:29.087Z,7.43
2022-10-03T23:55:36.282Z,6.25
2022-10-03T23:57:42.075Z,6.18
2022-10-03T23:59:52.625Z,6.55
